Flight Track Log - Related Links

Times and Time Zones

All times are in EST time to prevent confusion due to time zone crossing. See the FRG2070 flight status page for this flight to view local times or setup timezone preferences in your user account.

Time Position Orientation Groundspeed Altitude Reporting Facility
EST Latitude Longitude Course Direction KTS MPH feet Rate Location/Type
Fri 05:34:48 AM 43.9103 -92.4994 313° West 3 3 1,300  Level Minneapolis Center
Fri 05:35:48 AM 43.9103 -92.4997 270° West 3 3 1,300 347 Level Minneapolis Center
Fri 05:36:49 AM 43.9256 -92.5211 315° West 73 84 2,000 744 Climbing Minneapolis Center
Fri 05:37:49 AM 43.9508 -92.5347 339° North 89 102 2,800 744 Climbing Minneapolis Center
Fri 05:38:50 AM 43.9792 -92.5494 339° North 107 123 3,500 595 Climbing Minneapolis Center
Fri 05:39:50 AM 44.0117 -92.5636 343° North 120 138 4,000 198 Climbing Minneapolis Center
Fri 05:40:00 AM 44.0233 -92.6743 313° West  Level FlightAware
Fri 05:40:51 AM 44.0472 -92.5794 342° North 133 153 3,900  Level Minneapolis Center
Fri 05:41:51 AM 44.0864 -92.6008 339° North 141 162 4,000 50 Climbing Minneapolis Center
Fri 05:42:52 AM 44.1208 -92.6253 333° Northwest 142 163 4,000  Level Minneapolis Center
Fri 05:43:52 AM 44.1556 -92.6500 333° Northwest 141 162 4,000 -50 Level Minneapolis Center
Fri 05:44:53 AM 44.1900 -92.6719 335° Northwest 140 161 3,900 -50 Descending Minneapolis Center
Fri 05:45:53 AM 44.2267 -92.6867 344° North 139 160 3,900  Level Minneapolis Center
Fri 05:46:54 AM 44.2661 -92.7075 339° North 139 160 3,900  Level Minneapolis Center
Fri 05:47:54 AM 44.3011 -92.7275 338° Northwest 136 157 3,900 50 Level Minneapolis Center
Fri 05:48:54 AM 44.3375 -92.7447 341° North 140 161 4,000 50 Climbing Minneapolis Center
Fri 05:49:55 AM 44.3711 -92.7614 340° North 140 161 4,000 50 Level Minneapolis Center
Fri 05:50:55 AM 44.4083 -92.7792 341° North 142 163 4,100 50 Climbing Minneapolis Center
Fri 05:51:56 AM 44.4453 -92.8006 338° Northwest 143 165 4,100 -149 Level Minneapolis Center
Fri 05:52:56 AM 44.4831 -92.8217 338° Northwest 146 168 3,800 -446 Descending Minneapolis Center
Fri 05:53:57 AM 44.5219 -92.8436 338° Northwest 150 173 3,200 -397 Descending Minneapolis Center
Fri 05:54:57 AM 44.5592 -92.8639 339° North 144 166 3,000 -50 Descending Minneapolis Center
Fri 05:55:58 AM 44.5908 -92.8811 339° North 127 146 3,100 50 Climbing Minneapolis Center
Fri 05:56:58 AM 44.6328 -92.9031 340° North 134 154 3,100 -50 Level Minneapolis Center
Fri 05:57:59 AM 44.6667 -92.9228 338° Northwest 133 153 3,000 -149 Descending Minneapolis Center
Fri 05:58:59 AM 44.7022 -92.9419 339° North 136 157 2,800 -197 Descending Minneapolis Center
Fri 06:00:01 AM 44.7386 -92.9536 347° North 135 155 2,600 -98 Descending Minneapolis Center
Fri 06:01:01 AM 44.7722 -92.9689 342° North 128 147 2,600  Level Minneapolis Center
Fri 06:02:02 AM 44.8061 -92.9772 350° North 125 144 2,600  Level Minneapolis Center
Fri 06:03:02 AM 44.8389 -92.9886 346° North 123 142 2,600 -200 Level Minneapolis Center
Fri 06:04:02 AM 44.8717 -93.0019 344° North 123 142 2,200 -496 Descending Minneapolis Center
Fri 06:05:03 AM 44.8989 -93.0272 327° Northwest 118 136 1,600 -545 Descending Minneapolis Center
Fri 06:06:03 AM 44.9247 -93.0508 327° Northwest 107 123 1,100 -500 Descending Minneapolis Center
Fri 06:08:00 AM 44.9333 -93.0500 347° North  Level FlightAware
Fri 06:15:00 AM 44.9346 -93.0603 347° North  Level Estimated

Login

Don't have an account? Register now (free) for customized features, flight alerts, and more!